createdAt,value
2022-12-23T00:04:19.107Z,8.69
2022-12-23T00:09:21.158Z,8.69
2022-12-23T00:14:47.553Z,8.74
2022-12-23T00:19:49.959Z,8.72
2022-12-23T00:24:51.559Z,8.77
2022-12-23T00:29:53.449Z,8.80
2022-12-23T00:34:55.050Z,8.76
2022-12-23T00:40:15.628Z,8.74
2022-12-23T00:45:17.250Z,8.73
2022-12-23T00:50:18.897Z,8.61
2022-12-23T00:55:20.805Z,8.65
2022-12-23T01:00:43.021Z,8.61
2022-12-23T01:05:47.679Z,8.68
2022-12-23T01:10:49.243Z,8.69
2022-12-23T01:15:50.837Z,8.68
2022-12-23T01:20:52.455Z,8.68
2022-12-23T01:26:02.858Z,8.74
2022-12-23T01:31:06.112Z,8.79
2022-12-23T01:36:10.132Z,8.75
2022-12-23T01:41:43.593Z,8.53
2022-12-23T01:46:45.324Z,8.68
2022-12-23T01:51:46.930Z,8.87
2022-12-23T01:56:48.934Z,8.98
2022-12-23T02:02:09.264Z,9.00
2022-12-23T02:07:30.564Z,9.01
2022-12-23T02:13:01.057Z,8.87
2022-12-23T02:18:40.186Z,8.84
2022-12-23T02:23:50.655Z,8.86
2022-12-23T02:29:07.077Z,8.83
2022-12-23T02:34:21.034Z,8.79
2022-12-23T02:39:38.219Z,8.84
2022-12-23T02:44:53.547Z,8.88
2022-12-23T02:49:59.010Z,9.05
2022-12-23T02:55:06.310Z,9.15
2022-12-23T03:00:10.530Z,9.15
2022-12-23T03:05:24.136Z,9.09
2022-12-23T03:10:48.312Z,9.08
2022-12-23T03:16:18.099Z,9.03
2022-12-23T03:21:29.578Z,9.04
2022-12-23T03:26:40.077Z,9.08
2022-12-23T03:31:43.803Z,9.15
2022-12-23T03:36:58.822Z,9.11
2022-12-23T03:42:19.573Z,8.82
2022-12-23T03:47:24.284Z,8.61
2022-12-23T03:52:35.526Z,8.45
2022-12-23T03:57:44.693Z,8.31
2022-12-23T04:03:10.679Z,8.15
2022-12-23T04:08:27.361Z,8.09
2022-12-23T04:13:30.240Z,8.07
2022-12-23T04:18:32.099Z,8.06
2022-12-23T04:23:33.719Z,8.03
2022-12-23T04:28:35.301Z,8.10
2022-12-23T04:33:36.890Z,8.30
2022-12-23T04:38:38.474Z,8.52
2022-12-23T04:43:40.083Z,8.52
2022-12-23T04:48:41.697Z,8.54
2022-12-23T04:53:43.332Z,8.55
2022-12-23T04:58:44.988Z,8.61
2022-12-23T05:03:46.597Z,8.61
2022-12-23T05:08:48.272Z,8.55
2022-12-23T05:13:49.927Z,8.44
2022-12-23T05:18:51.557Z,8.37
2022-12-23T05:23:53.238Z,8.45
2022-12-23T05:28:55.721Z,8.62
2022-12-23T05:34:02.316Z,8.72
2022-12-23T05:39:07.436Z,8.60
2022-12-23T05:44:09.025Z,8.63
2022-12-23T05:49:10.614Z,8.69
2022-12-23T05:54:12.276Z,8.75
2022-12-23T05:59:13.880Z,8.86
2022-12-23T06:04:15.531Z,8.95
2022-12-23T06:09:17.172Z,9.07
2022-12-23T06:14:22.595Z,9.15
2022-12-23T06:19:26.859Z,9.12
2022-12-23T06:24:28.465Z,9.18
2022-12-23T06:29:30.061Z,9.22
2022-12-23T06:34:31.737Z,9.27
2022-12-23T06:39:33.697Z,9.34
2022-12-23T06:44:35.270Z,9.40
2022-12-23T06:49:36.883Z,9.45
2022-12-23T06:54:38.565Z,9.45
2022-12-23T06:59:40.424Z,9.43
2022-12-23T07:04:42.019Z,9.47
2022-12-23T07:09:43.762Z,9.39
2022-12-23T07:14:45.390Z,9.30
2022-12-23T07:19:46.992Z,9.26
2022-12-23T07:24:48.753Z,9.20
2022-12-23T07:29:50.444Z,9.08
2022-12-23T07:34:52.104Z,8.90
2022-12-23T07:39:53.675Z,8.79
2022-12-23T07:44:55.285Z,8.69
2022-12-23T07:49:56.882Z,8.63
2022-12-23T07:54:58.489Z,8.58
2022-12-23T08:00:00.094Z,8.51
2022-12-23T08:05:02.032Z,8.57
2022-12-23T08:10:04.945Z,8.60
2022-12-23T08:15:07.757Z,8.76
2022-12-23T08:20:09.774Z,8.83
2022-12-23T08:25:11.444Z,8.90
2022-12-23T08:30:13.433Z,8.96
2022-12-23T08:35:15.155Z,9.06
2022-12-23T08:40:16.821Z,9.17
2022-12-23T08:45:18.736Z,9.24
2022-12-23T08:50:20.438Z,9.35
2022-12-23T08:55:22.096Z,9.36
2022-12-23T09:00:23.831Z,9.39
2022-12-23T09:05:26.126Z,9.36
2022-12-23T09:10:27.877Z,9.43
2022-12-23T09:15:29.599Z,9.50
2022-12-23T09:20:31.487Z,9.54
2022-12-23T09:25:33.839Z,9.66
2022-12-23T09:30:35.478Z,9.74
2022-12-23T09:35:37.134Z,9.79
2022-12-23T09:40:41.055Z,9.94
2022-12-23T09:46:16.648Z,9.95
2022-12-23T09:51:23.427Z,10.04
2022-12-23T09:56:34.517Z,10.05
2022-12-23T10:02:11.501Z,9.96
2022-12-23T10:07:37.518Z,10.00
2022-12-23T10:12:43.195Z,10.04
2022-12-23T10:17:46.458Z,9.97
2022-12-23T10:22:48.137Z,10.00
2022-12-23T10:27:50.078Z,10.05
2022-12-23T10:33:23.474Z,10.05
2022-12-23T10:38:29.108Z,10.08
2022-12-23T10:44:28.817Z,9.99
2022-12-23T10:49:44.173Z,10.14
2022-12-23T10:54:47.675Z,10.15
2022-12-23T10:59:49.324Z,10.17
2022-12-23T11:04:52.107Z,10.15
2022-12-23T11:10:02.548Z,10.02
2022-12-23T11:15:04.473Z,9.87
2022-12-23T11:20:12.295Z,9.88
2022-12-23T11:25:29.286Z,10.04
2022-12-23T11:30:35.305Z,10.18
2022-12-23T11:35:37.557Z,10.22
2022-12-23T11:40:39.848Z,10.23
2022-12-23T11:45:41.492Z,10.22
2022-12-23T11:50:43.148Z,10.24
2022-12-23T11:56:09.266Z,10.30
2022-12-23T12:01:17.848Z,10.23
2022-12-23T12:06:20.452Z,10.11
2022-12-23T12:11:27.235Z,10.12
2022-12-23T12:17:16.543Z,9.89
2022-12-23T12:22:33.396Z,9.84
2022-12-23T12:27:39.384Z,9.99
2022-12-23T12:33:11.875Z,10.00
2022-12-23T12:38:29.835Z,9.89
2022-12-23T12:43:35.273Z,9.81
2022-12-23T12:48:54.798Z,9.54
2022-12-23T12:54:05.546Z,9.55
2022-12-23T12:59:25.050Z,9.62
2022-12-23T13:05:06.527Z,9.47
2022-12-23T13:10:20.420Z,9.43
2022-12-23T13:15:33.898Z,9.45
2022-12-23T13:20:59.558Z,9.40
2022-12-23T13:26:32.695Z,9.43
2022-12-23T13:32:01.736Z,9.43
2022-12-23T13:37:17.091Z,9.56
2022-12-23T13:42:28.618Z,9.53
2022-12-23T13:47:39.124Z,9.44
2022-12-23T13:53:10.320Z,9.23
2022-12-23T13:58:22.027Z,9.36
2022-12-23T14:03:31.889Z,9.51
2022-12-23T14:08:42.915Z,9.50
2022-12-23T14:13:46.410Z,9.20
2022-12-23T14:19:00.348Z,9.45
2022-12-23T14:24:08.079Z,9.32
2022-12-23T14:29:42.367Z,9.36
2022-12-23T14:35:16.857Z,9.45
2022-12-23T14:40:37.189Z,9.31
2022-12-23T14:45:43.555Z,9.40
2022-12-23T14:50:57.586Z,9.40
2022-12-23T14:56:27.065Z,9.41
2022-12-23T15:01:54.073Z,9.46
2022-12-23T15:07:16.939Z,9.55
2022-12-23T15:12:35.984Z,9.67
2022-12-23T15:17:37.708Z,9.71
2022-12-23T15:22:41.615Z,9.76
2022-12-23T15:27:43.504Z,9.81
2022-12-23T15:32:47.663Z,9.89
2022-12-23T15:37:51.523Z,9.86
2022-12-23T15:42:53.943Z,9.81
2022-12-23T15:47:55.755Z,9.77
2022-12-23T15:53:05.445Z,9.73
2022-12-23T15:58:07.363Z,9.78
2022-12-23T16:03:26.987Z,9.80
2022-12-23T16:08:30.556Z,9.88
2022-12-23T16:13:32.817Z,9.77
2022-12-23T16:18:46.930Z,9.91
2022-12-23T16:23:53.326Z,9.99
2022-12-23T16:29:01.501Z,10.02
2022-12-23T16:34:06.693Z,10.12
2022-12-23T16:39:18.999Z,10.09
2022-12-23T16:44:20.620Z,10.36
2022-12-23T16:49:29.531Z,10.59
2022-12-23T16:54:35.089Z,10.60
2022-12-23T16:59:37.431Z,10.68
2022-12-23T17:04:39.023Z,10.64
2022-12-23T17:09:40.651Z,10.56
2022-12-23T17:14:42.259Z,10.50
2022-12-23T17:19:43.928Z,10.54
2022-12-23T17:24:45.542Z,10.67
2022-12-23T17:29:47.286Z,10.68
2022-12-23T17:34:49.993Z,10.73
2022-12-23T17:39:51.724Z,10.73
2022-12-23T17:44:54.110Z,10.79
2022-12-23T17:49:55.736Z,10.76
2022-12-23T17:54:57.366Z,10.76
2022-12-23T17:59:58.995Z,10.87
2022-12-23T18:05:02.216Z,10.84
2022-12-23T18:10:04.216Z,10.83
2022-12-23T18:15:07.387Z,10.84
2022-12-23T18:20:18.348Z,10.82
2022-12-23T18:25:19.887Z,10.37
2022-12-23T18:30:22.001Z,10.62
2022-12-23T18:35:32.353Z,10.54
2022-12-23T18:40:34.353Z,10.51
2022-12-23T18:45:42.007Z,10.51
2022-12-23T18:50:46.635Z,10.52
2022-12-23T18:55:48.605Z,10.49
2022-12-23T19:00:52.721Z,10.50
2022-12-23T19:05:56.060Z,10.56
2022-12-23T19:10:57.713Z,10.59
2022-12-23T19:15:59.424Z,10.69
2022-12-23T19:21:04.487Z,10.84
2022-12-23T19:26:06.357Z,10.86
2022-12-23T19:31:09.756Z,10.96
2022-12-23T19:36:17.061Z,10.85
2022-12-23T19:41:19.152Z,10.67
2022-12-23T19:46:21.080Z,10.56
2022-12-23T19:51:22.700Z,10.49
2022-12-23T19:56:25.170Z,10.34
2022-12-23T20:01:27.966Z,10.34
2022-12-23T20:06:38.381Z,10.37
2022-12-23T20:11:43.450Z,10.45
2022-12-23T20:16:46.007Z,10.54
2022-12-23T20:21:47.728Z,10.53
2022-12-23T20:26:49.362Z,10.53
2022-12-23T20:31:51.096Z,10.55
2022-12-23T20:36:52.797Z,10.50
2022-12-23T20:41:54.424Z,10.52
2022-12-23T20:46:56.085Z,10.41
2022-12-23T20:51:57.958Z,10.54
2022-12-23T20:56:59.625Z,10.50
2022-12-23T21:02:01.327Z,10.44
2022-12-23T21:07:02.984Z,10.28
2022-12-23T21:12:04.849Z,10.26
2022-12-23T21:17:06.601Z,10.17
2022-12-23T21:22:08.724Z,10.11
2022-12-23T21:27:10.471Z,10.12
2022-12-23T21:32:12.046Z,10.10
2022-12-23T21:37:13.743Z,10.09
2022-12-23T21:42:15.424Z,10.03
2022-12-23T21:47:17.259Z,9.90
2022-12-23T21:52:19.020Z,9.85
2022-12-23T21:57:20.780Z,9.98
2022-12-23T22:02:22.445Z,9.97
2022-12-23T22:07:24.166Z,9.93
2022-12-23T22:12:27.022Z,9.99
2022-12-23T22:17:28.682Z,10.05
2022-12-23T22:22:30.294Z,10.02
2022-12-23T22:27:32.048Z,10.23
2022-12-23T22:32:37.750Z,10.13
2022-12-23T22:37:42.291Z,10.21
2022-12-23T22:42:43.915Z,10.29
2022-12-23T22:47:45.585Z,10.20
2022-12-23T22:52:47.349Z,10.11
2022-12-23T22:57:48.964Z,10.21
2022-12-23T23:02:50.560Z,10.22
2022-12-23T23:07:52.239Z,10.26
2022-12-23T23:12:53.857Z,10.23
2022-12-23T23:17:56.225Z,10.21
2022-12-23T23:22:57.859Z,10.12
2022-12-23T23:27:59.450Z,10.13
2022-12-23T23:33:01.077Z,10.28
2022-12-23T23:38:03.796Z,10.33
2022-12-23T23:43:05.443Z,10.29
2022-12-23T23:48:08.172Z,10.36
2022-12-23T23:53:11.934Z,10.33
2022-12-23T23:58:13.567Z,10.32
